Fish Lake, Utah
Current Conditions -  °F | °C
As of 5:35 PM on Saturday 22 Nov 2014 (Local Time) from KDTA Reporting Station
Overcast Overcast  
Wind Chill: 39°   Ceiling: 5000
Heat Index: 44°   Visibility: 10mi
Dew Point: 40°   Wind: 9mph
Humidity: 87%   Direction: 10°N
Pressure: 29.8"   Gusts: NA
Location:  38.7083°N, 111.729°W
Report Text: KDTA 230035Z AUTO 01008KT 10SM SCT041 BKN050 OVC110 07/05 A2980 RMK AO1 T00650045
Loading
Personal Weather Stations






























Interactive Weather Map New forecast layout! Learn more

10-Day Weather Forecast

Advertisements
Track Severe Weather on mobile